createdAt,value
2023-03-15T00:01:16.898Z,4.65
2023-03-15T00:03:45.916Z,2.83
2023-03-15T00:06:16.944Z,3.67
2023-03-15T00:08:47.847Z,4.57
2023-03-15T00:11:17.358Z,2.67
2023-03-15T00:13:46.210Z,3.38
2023-03-15T00:16:20.894Z,3.10
2023-03-15T00:18:49.639Z,5.13
2023-03-15T00:21:19.375Z,4.30
2023-03-15T00:23:47.872Z,3.80
2023-03-15T00:26:16.544Z,5.32
2023-03-15T00:28:45.287Z,4.60
2023-03-15T00:31:16.890Z,2.55
2023-03-15T00:33:47.204Z,3.85
2023-03-15T00:36:17.584Z,4.32
2023-03-15T00:38:47.513Z,5.15
2023-03-15T00:41:18.544Z,3.28
2023-03-15T00:43:50.049Z,7.57
2023-03-15T00:46:19.093Z,2.85
2023-03-15T00:48:49.868Z,5.80
2023-03-15T00:51:21.371Z,4.55
2023-03-15T00:53:54.989Z,4.13
2023-03-15T00:56:26.563Z,4.43
2023-03-15T00:58:55.074Z,5.00
2023-03-15T01:01:26.046Z,5.22
2023-03-15T01:03:58.120Z,5.10
2023-03-15T01:06:28.522Z,4.82
2023-03-15T01:08:58.608Z,3.70
2023-03-15T01:11:28.859Z,4.18
2023-03-15T01:13:59.797Z,3.95
2023-03-15T01:16:29.096Z,4.65
2023-03-15T01:18:57.785Z,4.15
2023-03-15T01:21:26.932Z,7.78
2023-03-15T01:23:55.769Z,4.28
2023-03-15T01:26:25.796Z,4.38
2023-03-15T01:28:55.340Z,5.15
2023-03-15T01:31:25.430Z,3.50
2023-03-15T01:33:54.409Z,5.88
2023-03-15T01:36:23.609Z,4.65
2023-03-15T01:38:53.982Z,5.13
2023-03-15T01:41:28.925Z,3.67
2023-03-15T01:43:57.974Z,3.85
2023-03-15T01:46:29.016Z,3.72
2023-03-15T01:49:08.432Z,3.75
2023-03-15T01:51:42.929Z,3.65
2023-03-15T01:54:17.296Z,7.10
2023-03-15T01:59:19.284Z,5.93
2023-03-15T02:01:50.436Z,3.35
2023-03-15T02:04:27.926Z,3.47
2023-03-15T02:06:59.568Z,6.30
2023-03-15T02:09:43.941Z,4.70
2023-03-15T02:12:17.030Z,4.63
2023-03-15T02:14:51.345Z,5.75
2023-03-15T02:17:24.070Z,3.97
2023-03-15T02:19:58.898Z,4.50
2023-03-15T02:25:01.484Z,4.18
2023-03-15T02:27:34.579Z,4.45
2023-03-15T02:30:04.394Z,4.45
2023-03-15T02:32:33.081Z,6.97
2023-03-15T02:35:01.494Z,4.05
2023-03-15T02:37:32.049Z,4.47
2023-03-15T02:40:00.633Z,3.63
2023-03-15T02:42:29.652Z,6.78
2023-03-15T02:45:00.427Z,4.10
2023-03-15T02:47:31.659Z,5.80
2023-03-15T02:50:00.245Z,4.15
2023-03-15T02:52:29.273Z,4.50
2023-03-15T02:54:58.473Z,5.30
2023-03-15T02:57:26.847Z,5.10
2023-03-15T02:59:57.360Z,5.45
2023-03-15T03:02:27.379Z,7.10
2023-03-15T03:04:55.778Z,4.72
2023-03-15T03:07:24.450Z,7.20
2023-03-15T03:09:58.859Z,5.95
2023-03-15T03:12:28.663Z,4.10
2023-03-15T03:14:57.832Z,5.28
2023-03-15T03:17:29.678Z,6.43
2023-03-15T03:19:58.372Z,7.00
2023-03-15T03:22:34.426Z,3.83
2023-03-15T03:25:03.833Z,7.65
2023-03-15T03:27:36.769Z,4.75
2023-03-15T03:30:08.277Z,4.68
2023-03-15T03:32:39.469Z,4.50
2023-03-15T03:35:08.929Z,3.40
2023-03-15T03:37:38.300Z,5.07
2023-03-15T03:42:41.556Z,5.82
2023-03-15T03:45:11.057Z,4.00
2023-03-15T03:47:45.555Z,5.38
2023-03-15T03:50:14.028Z,4.63
2023-03-15T03:52:43.978Z,4.82
2023-03-15T03:55:18.741Z,5.05
2023-03-15T03:57:47.446Z,7.07
2023-03-15T04:00:27.428Z,6.18
2023-03-15T04:02:59.644Z,4.72
2023-03-15T04:05:28.215Z,3.38
2023-03-15T04:07:57.002Z,4.45
2023-03-15T04:10:27.149Z,5.07
2023-03-15T04:12:58.349Z,4.22
2023-03-15T04:15:27.029Z,5.15
2023-03-15T04:17:57.338Z,4.85
2023-03-15T04:20:34.694Z,4.10
2023-03-15T04:23:04.268Z,3.45
2023-03-15T04:25:35.730Z,5.72
2023-03-15T04:28:27.274Z,4.30
2023-03-15T04:31:10.801Z,8.27
2023-03-15T04:33:53.740Z,5.13
2023-03-15T04:36:42.988Z,6.78
2023-03-15T04:39:31.932Z,4.60
2023-03-15T04:42:19.568Z,5.85
2023-03-15T04:45:00.185Z,5.63
2023-03-15T04:47:51.812Z,5.57
2023-03-15T04:50:40.829Z,6.20
2023-03-15T04:53:31.634Z,5.90
2023-03-15T04:56:29.793Z,4.95
2023-03-15T04:59:12.464Z,6.57
2023-03-15T05:02:04.184Z,8.05
2023-03-15T05:04:56.151Z,5.95
2023-03-15T05:07:49.353Z,7.18
2023-03-15T05:10:38.161Z,4.53
2023-03-15T05:13:27.075Z,4.45
2023-03-15T05:16:13.718Z,8.13
2023-03-15T05:19:00.874Z,6.13
2023-03-15T05:21:46.849Z,5.88
2023-03-15T05:24:39.635Z,8.30
2023-03-15T05:27:15.775Z,7.05
2023-03-15T05:29:59.110Z,5.50
2023-03-15T05:32:49.282Z,4.75
2023-03-15T05:35:28.581Z,7.00
2023-03-15T05:38:20.534Z,4.85
2023-03-15T05:41:18.161Z,5.05
2023-03-15T05:43:58.234Z,6.00
2023-03-15T05:46:55.730Z,6.10
2023-03-15T05:49:43.500Z,7.32
2023-03-15T05:52:27.877Z,6.10
2023-03-15T05:55:11.353Z,5.72
2023-03-15T05:58:10.218Z,5.95
2023-03-15T06:00:57.717Z,6.88
2023-03-15T06:03:51.619Z,6.35
2023-03-15T06:06:29.933Z,7.47
2023-03-15T06:08:59.627Z,7.97
2023-03-15T06:11:28.168Z,6.10
2023-03-15T06:13:59.200Z,4.97
2023-03-15T06:16:37.866Z,9.45
2023-03-15T06:19:06.565Z,8.40
2023-03-15T06:21:35.145Z,7.80
2023-03-15T06:24:09.463Z,5.97
2023-03-15T06:26:38.196Z,6.13
2023-03-15T06:29:11.664Z,7.88
2023-03-15T06:31:43.448Z,6.13
2023-03-15T06:34:13.621Z,9.30
2023-03-15T06:36:42.743Z,7.30
2023-03-15T06:39:12.589Z,7.60
2023-03-15T06:41:44.550Z,9.07
2023-03-15T06:44:21.409Z,6.93
2023-03-15T06:46:57.293Z,8.48
2023-03-15T06:49:25.743Z,6.38
2023-03-15T06:51:55.014Z,5.80
2023-03-15T06:54:24.511Z,5.07
2023-03-15T06:56:53.051Z,6.80
2023-03-15T06:59:23.218Z,6.55
2023-03-15T07:01:51.841Z,5.93
2023-03-15T07:04:20.352Z,7.10
2023-03-15T07:06:49.126Z,5.90
2023-03-15T07:09:17.721Z,5.85
2023-03-15T07:11:51.046Z,5.38
2023-03-15T07:14:22.599Z,4.75
2023-03-15T07:16:52.893Z,6.82
2023-03-15T07:19:21.386Z,8.02
2023-03-15T07:21:50.030Z,9.85
2023-03-15T07:24:18.912Z,5.72
2023-03-15T07:26:47.533Z,7.75
2023-03-15T07:29:16.246Z,5.15
2023-03-15T07:31:44.751Z,5.15
2023-03-15T07:34:14.490Z,5.95
2023-03-15T07:36:44.973Z,11.35
2023-03-15T07:39:13.429Z,7.22
2023-03-15T07:41:42.165Z,5.72
2023-03-15T07:44:24.026Z,7.13
2023-03-15T07:46:52.622Z,6.32
2023-03-15T07:49:22.507Z,7.00
2023-03-15T07:51:51.420Z,13.93
2023-03-15T07:54:22.407Z,7.13
2023-03-15T07:56:50.831Z,9.75
2023-03-15T07:59:19.172Z,7.55
2023-03-15T08:01:47.533Z,11.02
2023-03-15T08:04:16.344Z,12.68
2023-03-15T08:06:48.697Z,5.97
2023-03-15T08:09:17.228Z,7.72
2023-03-15T08:11:45.852Z,10.18
2023-03-15T08:14:14.520Z,7.80
2023-03-15T08:16:43.400Z,7.15
2023-03-15T08:19:13.918Z,11.77
2023-03-15T08:21:46.351Z,7.05
2023-03-15T08:24:16.524Z,9.80
2023-03-15T08:26:45.183Z,7.80
2023-03-15T08:29:14.904Z,14.40
2023-03-15T08:31:43.303Z,13.63
2023-03-15T08:34:12.313Z,10.13
2023-03-15T08:36:43.694Z,8.68
2023-03-15T08:39:12.302Z,17.02
2023-03-15T08:41:45.727Z,17.23
2023-03-15T08:44:14.352Z,11.82
2023-03-15T08:46:42.831Z,8.82
2023-03-15T08:49:13.496Z,11.80
2023-03-15T08:51:42.012Z,11.88
2023-03-15T08:54:10.496Z,6.90
2023-03-15T08:56:39.025Z,11.18
2023-03-15T08:59:10.147Z,7.75
2023-03-15T09:01:40.547Z,8.75
2023-03-15T09:04:12.193Z,8.80
2023-03-15T09:06:40.839Z,7.68
2023-03-15T09:09:09.580Z,8.65
2023-03-15T09:11:41.045Z,7.20
2023-03-15T09:14:12.114Z,8.65
2023-03-15T09:16:40.594Z,10.57
2023-03-15T09:19:09.415Z,7.72
2023-03-15T09:21:37.795Z,13.00
2023-03-15T09:24:07.047Z,9.45
2023-03-15T09:26:35.626Z,11.07
2023-03-15T09:29:05.646Z,14.48
2023-03-15T09:31:35.349Z,7.47
2023-03-15T09:34:03.944Z,10.68
2023-03-15T09:36:32.327Z,9.20
2023-03-15T09:39:03.597Z,8.57
2023-03-15T09:41:42.316Z,17.92
2023-03-15T09:44:18.523Z,12.30
2023-03-15T09:46:58.629Z,14.27
2023-03-15T09:49:35.565Z,15.25
2023-03-15T09:52:07.697Z,10.90
2023-03-15T09:54:43.727Z,9.98
2023-03-15T09:57:17.288Z,9.07
2023-03-15T09:59:48.821Z,15.05
2023-03-15T10:02:25.484Z,9.82
2023-03-15T10:04:57.856Z,8.30
2023-03-15T10:07:29.016Z,10.13
2023-03-15T10:09:59.100Z,6.78
2023-03-15T10:12:31.475Z,9.70
2023-03-15T10:15:18.267Z,10.85
2023-03-15T10:17:54.599Z,11.48
2023-03-15T10:20:29.139Z,9.00
2023-03-15T10:23:00.568Z,9.95
2023-03-15T10:25:30.381Z,15.05
2023-03-15T10:28:01.177Z,11.38
2023-03-15T10:30:33.281Z,9.38
2023-03-15T10:33:05.500Z,9.43
2023-03-15T10:35:36.423Z,12.02
2023-03-15T10:38:11.912Z,7.70
2023-03-15T10:40:42.707Z,8.30
2023-03-15T10:43:18.774Z,8.27
2023-03-15T10:46:00.527Z,12.32
2023-03-15T10:48:32.392Z,7.15
2023-03-15T10:51:05.475Z,6.88
2023-03-15T10:53:34.335Z,10.82
2023-03-15T10:56:04.964Z,7.50
2023-03-15T10:58:42.494Z,12.05
2023-03-15T11:01:15.786Z,8.50
2023-03-15T11:03:45.835Z,7.68
2023-03-15T11:06:23.095Z,10.10
2023-03-15T11:08:53.358Z,12.27
2023-03-15T11:11:22.277Z,24.70
2023-03-15T11:13:57.396Z,15.73
2023-03-15T11:16:25.966Z,12.40
2023-03-15T11:18:59.544Z,12.40
2023-03-15T11:21:33.670Z,12.40
2023-03-15T11:24:03.483Z,11.50
2023-03-15T11:26:36.427Z,8.68
2023-03-15T11:29:08.152Z,11.05
2023-03-15T11:31:37.539Z,15.20
2023-03-15T11:34:09.768Z,11.38
2023-03-15T11:36:43.102Z,9.07
2023-03-15T11:39:15.434Z,6.13
2023-03-15T11:41:46.994Z,15.30
2023-03-15T11:44:24.084Z,13.93
2023-03-15T11:46:57.156Z,18.30
2023-03-15T11:49:32.906Z,8.30
2023-03-15T11:52:01.855Z,9.68
2023-03-15T11:54:31.157Z,8.82
2023-03-15T11:57:04.463Z,10.35
2023-03-15T11:59:34.510Z,8.85
2023-03-15T12:02:40.188Z,6.57
2023-03-15T12:08:19.307Z,7.75
2023-03-15T12:10:49.864Z,13.32
2023-03-15T12:13:25.357Z,9.45
2023-03-15T12:15:54.200Z,13.85
2023-03-15T12:18:34.089Z,10.20
2023-03-15T12:21:22.541Z,7.55
2023-03-15T12:23:59.977Z,8.82
2023-03-15T12:26:34.047Z,7.45
2023-03-15T12:29:24.470Z,9.63
2023-03-15T12:31:55.962Z,10.45
2023-03-15T12:34:28.504Z,10.30
2023-03-15T12:37:02.441Z,7.60
2023-03-15T12:39:45.885Z,9.13
2023-03-15T12:42:47.577Z,10.55
2023-03-15T12:45:54.892Z,11.82
2023-03-15T12:48:27.777Z,9.38
2023-03-15T12:51:05.069Z,7.72
2023-03-15T12:53:48.891Z,10.68
2023-03-15T12:56:42.607Z,9.50
2023-03-15T12:59:30.003Z,10.38
2023-03-15T13:04:28.425Z,11.02
2023-03-15T13:07:20.180Z,10.10
2023-03-15T13:10:15.337Z,10.35
2023-03-15T13:12:47.709Z,8.40
2023-03-15T13:15:21.983Z,7.95
2023-03-15T13:17:53.042Z,9.50
2023-03-15T13:20:38.852Z,9.60
2023-03-15T13:23:16.105Z,7.97
2023-03-15T13:25:53.825Z,8.65
2023-03-15T13:28:25.058Z,11.68
2023-03-15T13:30:54.236Z,10.10
2023-03-15T13:33:24.624Z,9.52
2023-03-15T13:35:58.697Z,11.02
2023-03-15T13:38:30.976Z,7.88
2023-03-15T13:41:03.826Z,11.07
2023-03-15T13:43:35.848Z,13.77
2023-03-15T13:46:04.974Z,13.35
2023-03-15T13:48:35.745Z,8.70
2023-03-15T13:51:07.437Z,11.55
2023-03-15T13:53:48.975Z,10.90
2023-03-15T13:56:21.909Z,10.75
2023-03-15T13:58:53.120Z,8.60
2023-03-15T14:01:23.336Z,8.38
2023-03-15T14:03:57.398Z,8.95
2023-03-15T14:06:27.532Z,7.97
2023-03-15T14:09:01.844Z,10.48
2023-03-15T14:11:38.052Z,11.40
2023-03-15T14:14:23.315Z,9.18
2023-03-15T14:17:04.282Z,9.13
2023-03-15T14:19:35.278Z,8.48
2023-03-15T14:22:06.019Z,7.28
2023-03-15T14:24:37.831Z,8.93
2023-03-15T14:27:13.867Z,9.48
2023-03-15T14:29:48.374Z,11.45
2023-03-15T14:32:26.780Z,8.90
2023-03-15T14:35:01.876Z,6.93
2023-03-15T14:37:37.057Z,6.95
2023-03-15T14:40:17.114Z,9.27
2023-03-15T14:42:47.479Z,10.25
2023-03-15T14:45:17.714Z,12.10
2023-03-15T14:47:56.706Z,8.48
2023-03-15T14:50:28.165Z,8.35
2023-03-15T14:52:57.779Z,9.77
2023-03-15T14:55:30.416Z,11.25
2023-03-15T14:58:05.807Z,7.93
2023-03-15T15:00:34.788Z,8.65
2023-03-15T15:03:03.968Z,13.35
2023-03-15T15:05:33.950Z,8.35
2023-03-15T15:08:06.205Z,9.18
2023-03-15T15:10:35.574Z,7.95
2023-03-15T15:13:07.120Z,7.38
2023-03-15T15:15:54.145Z,12.95
2023-03-15T15:18:24.212Z,6.75
2023-03-15T15:20:55.679Z,7.63
2023-03-15T15:23:34.925Z,9.05
2023-03-15T15:26:07.124Z,6.88
2023-03-15T15:28:37.672Z,7.95
2023-03-15T15:31:08.668Z,9.07
2023-03-15T15:33:37.510Z,11.05
2023-03-15T15:36:11.570Z,7.65
2023-03-15T15:38:40.447Z,8.25
2023-03-15T15:41:14.749Z,7.90
2023-03-15T15:43:45.185Z,8.07
2023-03-15T15:46:14.929Z,14.35
2023-03-15T15:48:43.626Z,7.13
2023-03-15T15:51:25.118Z,14.30
2023-03-15T15:53:55.022Z,8.23
2023-03-15T15:56:30.301Z,9.20
2023-03-15T15:59:10.444Z,11.77
2023-03-15T16:01:49.254Z,6.22
2023-03-15T16:04:26.024Z,8.38
2023-03-15T16:06:58.686Z,6.53
2023-03-15T16:09:28.855Z,7.88
2023-03-15T16:11:58.627Z,10.10
2023-03-15T16:14:30.316Z,9.27
2023-03-15T16:16:58.952Z,5.78
2023-03-15T16:19:27.491Z,7.68
2023-03-15T16:22:03.864Z,6.45
2023-03-15T16:24:36.316Z,5.68
2023-03-15T16:27:06.638Z,5.75
2023-03-15T16:29:43.211Z,6.80
2023-03-15T16:32:19.357Z,6.22
2023-03-15T16:34:53.833Z,6.70
2023-03-15T16:37:25.163Z,8.65
2023-03-15T16:39:56.647Z,6.22
2023-03-15T16:42:26.051Z,7.28
2023-03-15T16:44:56.211Z,6.55
2023-03-15T16:47:24.715Z,9.55
2023-03-15T16:49:53.077Z,10.00
2023-03-15T16:52:21.818Z,5.95
2023-03-15T16:54:50.190Z,6.50
2023-03-15T16:57:22.071Z,6.25
2023-03-15T16:59:51.827Z,7.63
2023-03-15T17:02:23.355Z,6.63
2023-03-15T17:04:53.008Z,8.13
2023-03-15T17:07:29.955Z,6.35
2023-03-15T17:09:59.023Z,7.85
2023-03-15T17:12:29.063Z,7.53
2023-03-15T17:14:59.467Z,5.82
2023-03-15T17:17:33.139Z,7.55
2023-03-15T17:20:02.326Z,5.97
2023-03-15T17:22:31.638Z,8.35
2023-03-15T17:25:02.997Z,5.65
2023-03-15T17:27:37.668Z,7.88
2023-03-15T17:30:16.757Z,11.90
2023-03-15T17:32:47.012Z,10.00
2023-03-15T17:35:16.816Z,8.98
2023-03-15T17:37:45.739Z,11.63
2023-03-15T17:40:21.362Z,12.77
2023-03-15T17:42:50.140Z,7.82
2023-03-15T17:45:20.842Z,9.63
2023-03-15T17:47:51.280Z,11.90
2023-03-15T17:50:20.212Z,8.75
2023-03-15T17:52:52.872Z,11.95
2023-03-15T17:55:25.639Z,10.32
2023-03-15T17:57:55.681Z,12.73
2023-03-15T18:00:25.335Z,8.75
2023-03-15T18:02:56.918Z,9.32
2023-03-15T18:05:29.979Z,13.73
2023-03-15T18:08:00.020Z,9.30
2023-03-15T18:10:35.100Z,9.00
2023-03-15T18:13:04.476Z,9.35
2023-03-15T18:15:35.672Z,7.78
2023-03-15T18:18:06.557Z,10.18
2023-03-15T18:20:37.710Z,10.77
2023-03-15T18:23:06.776Z,13.07
2023-03-15T18:25:36.248Z,9.98
2023-03-15T18:28:05.081Z,8.63
2023-03-15T18:30:34.035Z,7.18
2023-03-15T18:33:06.054Z,8.43
2023-03-15T18:35:36.242Z,8.73
2023-03-15T18:38:05.609Z,7.50
2023-03-15T18:40:35.395Z,12.55
2023-03-15T18:43:05.544Z,7.85
2023-03-15T18:45:36.384Z,8.63
2023-03-15T18:48:07.109Z,7.75
2023-03-15T18:50:36.345Z,6.45
2023-03-15T18:53:06.575Z,11.38
2023-03-15T18:55:35.856Z,8.60
2023-03-15T18:58:04.988Z,10.43
2023-03-15T19:00:36.201Z,7.95
2023-03-15T19:03:07.381Z,7.70
2023-03-15T19:05:38.130Z,8.07
2023-03-15T19:08:07.008Z,10.90
2023-03-15T19:10:37.797Z,11.85
2023-03-15T19:13:06.784Z,8.52
2023-03-15T19:15:35.418Z,9.48
2023-03-15T19:18:04.031Z,7.30
2023-03-15T19:20:36.943Z,6.57
2023-03-15T19:23:05.506Z,8.43
2023-03-15T19:25:34.660Z,6.03
2023-03-15T19:28:04.033Z,8.90
2023-03-15T19:30:32.882Z,8.32
2023-03-15T19:33:01.999Z,9.18
2023-03-15T19:35:32.486Z,12.65
2023-03-15T19:38:04.240Z,5.30
2023-03-15T19:40:32.873Z,10.90
2023-03-15T19:43:01.278Z,7.82
2023-03-15T19:45:30.115Z,8.90
2023-03-15T19:48:01.101Z,8.50
2023-03-15T19:50:32.066Z,8.73
2023-03-15T19:53:02.272Z,8.88
2023-03-15T19:55:35.881Z,8.68
2023-03-15T19:58:07.261Z,14.52
2023-03-15T20:00:36.558Z,15.98
2023-03-15T20:03:06.890Z,5.50
2023-03-15T20:05:35.998Z,6.72
2023-03-15T20:08:06.113Z,8.65
2023-03-15T20:10:34.600Z,6.18
2023-03-15T20:13:03.818Z,11.15
2023-03-15T20:15:33.667Z,6.28
2023-03-15T20:18:02.596Z,10.23
2023-03-15T20:20:31.207Z,9.43
2023-03-15T20:23:02.326Z,7.28
2023-03-15T20:25:32.827Z,4.78
2023-03-15T20:28:01.233Z,5.88
2023-03-15T20:30:29.748Z,5.82
2023-03-15T20:32:58.100Z,6.05
2023-03-15T20:35:29.709Z,7.93
2023-03-15T20:38:06.787Z,8.07
2023-03-15T20:40:42.825Z,8.65
2023-03-15T20:43:12.465Z,13.18
2023-03-15T20:45:40.881Z,6.45
2023-03-15T20:48:09.680Z,8.52
2023-03-15T20:50:38.440Z,11.52
2023-03-15T20:53:06.911Z,8.45
2023-03-15T20:55:36.765Z,7.57
2023-03-15T20:58:05.338Z,11.20
2023-03-15T21:00:36.093Z,8.77
2023-03-15T21:03:04.809Z,5.88
2023-03-15T21:05:33.142Z,5.35
2023-03-15T21:08:01.750Z,10.20
2023-03-15T21:10:33.088Z,11.52
2023-03-15T21:13:09.910Z,5.45
2023-03-15T21:15:45.917Z,9.98
2023-03-15T21:18:14.620Z,10.90
2023-03-15T21:20:43.205Z,8.32
2023-03-15T21:23:12.263Z,11.20
2023-03-15T21:25:41.241Z,12.82
2023-03-15T21:28:11.132Z,11.90
2023-03-15T21:30:42.646Z,10.68
2023-03-15T21:33:11.234Z,8.98
2023-03-15T21:35:57.001Z,7.63
2023-03-15T21:38:34.291Z,7.18
2023-03-15T21:41:10.369Z,8.40
2023-03-15T21:43:40.623Z,8.75
2023-03-15T21:46:13.057Z,9.20
2023-03-15T21:48:53.910Z,9.02
2023-03-15T21:51:24.371Z,11.20
2023-03-15T21:53:52.907Z,9.70
2023-03-15T21:56:26.170Z,11.10
2023-03-15T21:58:56.402Z,9.60
2023-03-15T22:01:25.417Z,8.90
2023-03-15T22:03:54.794Z,12.10
2023-03-15T22:06:35.578Z,11.40
2023-03-15T22:09:04.475Z,14.20
2023-03-15T22:11:32.824Z,10.80
2023-03-15T22:14:02.714Z,10.13
2023-03-15T22:16:33.388Z,14.65
2023-03-15T22:19:03.285Z,8.10
2023-03-15T22:21:42.323Z,9.68
2023-03-15T22:24:14.111Z,12.80
2023-03-15T22:26:46.745Z,13.02
2023-03-15T22:29:19.783Z,9.77
2023-03-15T22:31:48.623Z,10.23
2023-03-15T22:34:16.933Z,14.63
2023-03-15T22:36:52.986Z,10.98
2023-03-15T22:39:23.338Z,11.75
2023-03-15T22:41:51.835Z,13.52
2023-03-15T22:44:21.812Z,14.35
2023-03-15T22:46:53.779Z,14.02
2023-03-15T22:49:32.685Z,13.82
2023-03-15T22:52:09.408Z,9.00
2023-03-15T22:54:41.432Z,15.13
2023-03-15T22:57:09.964Z,8.90
2023-03-15T22:59:39.928Z,10.75
2023-03-15T23:02:12.172Z,9.85
2023-03-15T23:04:42.609Z,10.73
2023-03-15T23:07:11.093Z,15.50
2023-03-15T23:09:39.871Z,15.63
2023-03-15T23:12:09.031Z,14.05
2023-03-15T23:14:37.971Z,15.75
2023-03-15T23:19:52.044Z,15.38
2023-03-15T23:22:20.392Z,15.65
2023-03-15T23:24:49.111Z,16.30
2023-03-15T23:27:17.542Z,16.27
2023-03-15T23:29:54.658Z,11.02
2023-03-15T23:32:26.450Z,10.68
2023-03-15T23:34:55.297Z,17.35
2023-03-15T23:37:25.536Z,17.23
2023-03-15T23:39:54.239Z,12.25
2023-03-15T23:42:26.953Z,12.85
2023-03-15T23:45:00.053Z,14.65
2023-03-15T23:47:31.069Z,14.90
2023-03-15T23:49:59.831Z,11.25
2023-03-15T23:52:33.897Z,12.93
2023-03-15T23:55:02.745Z,15.15
2023-03-15T23:57:31.648Z,14.65
